createdAt,value
2023-01-13T00:00:48.751Z,11.40
2023-01-13T00:01:48.740Z,10.00
2023-01-13T00:02:48.733Z,10.00
2023-01-13T00:03:48.726Z,9.90
2023-01-13T00:04:48.797Z,10.30
2023-01-13T00:05:48.741Z,9.70
2023-01-13T00:06:48.685Z,10.20
2023-01-13T00:07:48.735Z,10.00
2023-01-13T00:08:48.682Z,10.50
2023-01-13T00:09:48.680Z,10.50
2023-01-13T00:10:48.652Z,9.60
2023-01-13T00:11:48.671Z,10.10
2023-01-13T00:12:48.668Z,9.70
2023-01-13T00:13:48.674Z,9.70
2023-01-13T00:14:48.637Z,9.70
2023-01-13T00:15:48.792Z,9.40
2023-01-13T00:16:48.627Z,9.80
2023-01-13T00:17:48.659Z,9.40
2023-01-13T00:18:48.607Z,9.10
2023-01-13T00:19:48.652Z,9.70
2023-01-13T00:20:48.592Z,9.70
2023-01-13T00:21:48.591Z,9.40
2023-01-13T00:22:48.604Z,10.50
2023-01-13T00:23:48.585Z,9.70
2023-01-13T00:24:48.548Z,12.70
2023-01-13T00:25:49.578Z,12.40
2023-01-13T00:26:48.555Z,10.50
2023-01-13T00:27:48.602Z,8.90
2023-01-13T00:28:48.544Z,9.20
2023-01-13T00:29:48.559Z,9.50
2023-01-13T00:30:48.522Z,10.50
2023-01-13T00:31:48.512Z,10.00
2023-01-13T00:32:48.506Z,11.00
2023-01-13T00:33:48.515Z,9.30
2023-01-13T00:34:48.513Z,9.20
2023-01-13T00:35:48.492Z,9.30
2023-01-13T00:36:48.497Z,12.70
2023-01-13T00:37:48.473Z,11.40
2023-01-13T00:38:48.494Z,10.60
2023-01-13T00:39:48.468Z,9.90
2023-01-13T00:40:48.459Z,8.50
2023-01-13T00:41:48.466Z,9.00
2023-01-13T00:42:48.489Z,9.70
2023-01-13T00:43:48.443Z,10.00
2023-01-13T00:44:48.457Z,10.00
2023-01-13T00:45:48.431Z,10.60
2023-01-13T00:46:48.467Z,11.00
2023-01-13T00:47:48.431Z,10.60
2023-01-13T00:48:48.421Z,10.80
2023-01-13T00:49:48.405Z,11.70
2023-01-13T00:50:48.393Z,11.70
2023-01-13T00:51:48.397Z,11.90
2023-01-13T00:52:48.377Z,10.60
2023-01-13T00:53:48.375Z,10.50
2023-01-13T00:54:48.432Z,9.20
2023-01-13T00:55:48.355Z,9.20
2023-01-13T00:56:48.358Z,9.40
2023-01-13T00:57:48.368Z,9.10
2023-01-13T00:58:48.379Z,9.00
2023-01-13T00:59:49.603Z,9.90
2023-01-13T01:00:49.362Z,12.00
2023-01-13T01:01:48.433Z,13.30
2023-01-13T01:02:48.361Z,12.10
2023-01-13T01:03:48.336Z,11.60
2023-01-13T01:04:48.349Z,10.20
2023-01-13T01:05:48.336Z,8.70
2023-01-13T01:06:48.288Z,9.30
2023-01-13T01:07:48.290Z,9.40
2023-01-13T01:08:48.331Z,9.10
2023-01-13T01:09:48.278Z,10.00
2023-01-13T01:10:48.387Z,9.70
2023-01-13T01:11:48.266Z,9.10
2023-01-13T01:12:48.301Z,11.50
2023-01-13T01:13:48.251Z,13.00
2023-01-13T01:14:48.260Z,11.60
2023-01-13T01:15:48.295Z,10.00
2023-01-13T01:16:48.290Z,8.40
2023-01-13T01:17:48.222Z,8.30
2023-01-13T01:18:49.200Z,7.40
2023-01-13T01:19:48.293Z,7.60
2023-01-13T01:20:48.187Z,7.00
2023-01-13T01:21:48.225Z,6.80
2023-01-13T01:22:48.175Z,6.50
2023-01-13T01:23:48.163Z,7.40
2023-01-13T01:24:48.160Z,6.90
2023-01-13T01:25:49.172Z,7.20
2023-01-13T01:26:48.170Z,7.80
2023-01-13T01:27:48.143Z,7.80
2023-01-13T01:28:48.198Z,7.80
2023-01-13T01:29:48.116Z,7.50
2023-01-13T01:30:48.131Z,6.50
2023-01-13T01:31:48.183Z,5.70
2023-01-13T01:32:48.104Z,5.60
2023-01-13T01:33:48.096Z,7.70
2023-01-13T01:34:48.110Z,7.10
2023-01-13T01:35:48.108Z,7.10
2023-01-13T01:36:48.079Z,6.10
2023-01-13T01:37:48.078Z,10.00
2023-01-13T01:38:48.074Z,8.90
2023-01-13T01:39:48.066Z,8.20
2023-01-13T01:40:48.068Z,8.50
2023-01-13T01:41:48.071Z,8.20
2023-01-13T01:42:49.063Z,7.10
2023-01-13T01:43:48.062Z,7.40
2023-01-13T01:44:49.849Z,7.20
2023-01-13T01:45:48.032Z,8.70
2023-01-13T01:46:48.048Z,8.90
2023-01-13T01:47:48.016Z,7.60
2023-01-13T01:48:48.066Z,8.10
2023-01-13T01:49:47.990Z,7.40
2023-01-13T01:50:47.983Z,12.70
2023-01-13T01:51:47.977Z,9.90
2023-01-13T01:52:47.976Z,10.20
2023-01-13T01:53:47.974Z,8.20
2023-01-13T01:54:47.994Z,8.90
2023-01-13T01:55:47.958Z,6.60
2023-01-13T01:56:47.941Z,8.00
2023-01-13T01:57:47.940Z,7.70
2023-01-13T01:58:47.958Z,7.80
2023-01-13T01:59:47.972Z,8.50
2023-01-13T02:00:47.985Z,8.70
2023-01-13T02:01:48.152Z,8.00
2023-01-13T02:02:48.054Z,8.20
2023-01-13T02:03:47.909Z,8.10
2023-01-13T02:04:47.904Z,9.20
2023-01-13T02:05:47.902Z,8.70
2023-01-13T02:06:47.898Z,8.90
2023-01-13T02:07:47.897Z,8.30
2023-01-13T02:08:48.033Z,8.80
2023-01-13T02:09:47.882Z,8.00
2023-01-13T02:10:47.880Z,8.50
2023-01-13T02:11:47.855Z,7.30
2023-01-13T02:12:47.858Z,7.90
2023-01-13T02:13:47.848Z,10.80
2023-01-13T02:14:47.831Z,13.10
2023-01-13T02:15:47.857Z,12.80
2023-01-13T02:16:47.814Z,12.30
2023-01-13T02:17:47.804Z,10.20
2023-01-13T02:18:47.794Z,9.80
2023-01-13T02:19:47.800Z,8.40
2023-01-13T02:20:47.790Z,7.50
2023-01-13T02:21:47.784Z,7.00
2023-01-13T02:22:47.776Z,6.60
2023-01-13T02:23:47.761Z,7.60
2023-01-13T02:24:47.774Z,6.70
2023-01-13T02:25:47.852Z,7.50
2023-01-13T02:26:47.739Z,7.80
2023-01-13T02:27:47.749Z,7.10
2023-01-13T02:28:47.750Z,7.20
2023-01-13T02:29:47.755Z,6.90
2023-01-13T02:30:47.717Z,6.20
2023-01-13T02:31:47.737Z,6.90
2023-01-13T02:32:47.702Z,9.80
2023-01-13T02:33:47.725Z,11.40
2023-01-13T02:34:47.712Z,12.80
2023-01-13T02:35:47.698Z,11.00
2023-01-13T02:36:47.684Z,9.90
2023-01-13T02:37:47.690Z,8.70
2023-01-13T02:38:47.730Z,8.00
2023-01-13T02:39:47.661Z,8.10
2023-01-13T02:40:47.719Z,6.90
2023-01-13T02:41:47.679Z,6.20
2023-01-13T02:42:47.667Z,6.60
2023-01-13T02:43:47.652Z,7.40
2023-01-13T02:44:47.649Z,6.90
2023-01-13T02:45:47.678Z,8.40
2023-01-13T02:46:47.616Z,7.90
2023-01-13T02:47:47.630Z,8.10
2023-01-13T02:48:47.625Z,8.00
2023-01-13T02:49:47.675Z,7.70
2023-01-13T02:50:47.598Z,8.70
2023-01-13T02:51:47.583Z,9.30
2023-01-13T02:52:47.594Z,7.60
2023-01-13T02:53:47.571Z,9.90
2023-01-13T02:54:47.573Z,12.70
2023-01-13T02:55:47.587Z,13.00
2023-01-13T02:56:47.593Z,13.10
2023-01-13T02:57:47.543Z,11.30
2023-01-13T02:58:47.544Z,10.70
2023-01-13T02:59:47.565Z,10.70
2023-01-13T03:00:47.587Z,9.70
2023-01-13T03:01:47.653Z,9.00
2023-01-13T03:02:47.598Z,8.70
2023-01-13T03:03:47.541Z,8.00
2023-01-13T03:04:47.509Z,8.30
2023-01-13T03:05:47.503Z,8.50
2023-01-13T03:06:47.528Z,9.00
2023-01-13T03:07:47.542Z,8.90
2023-01-13T03:08:47.537Z,8.90
2023-01-13T03:09:47.484Z,8.90
2023-01-13T03:10:47.489Z,8.40
2023-01-13T03:11:47.471Z,7.40
2023-01-13T03:12:47.479Z,6.40
2023-01-13T03:13:47.475Z,7.70
2023-01-13T03:14:47.452Z,9.20
2023-01-13T03:15:47.452Z,10.20
2023-01-13T03:16:47.478Z,8.40
2023-01-13T03:17:47.408Z,9.30
2023-01-13T03:18:48.432Z,9.40
2023-01-13T03:19:47.420Z,7.00
2023-01-13T03:20:47.404Z,4.70
2023-01-13T03:21:47.398Z,5.80
2023-01-13T03:22:47.385Z,4.40
2023-01-13T03:23:47.392Z,5.10
2023-01-13T03:24:47.383Z,4.80
2023-01-13T03:25:47.363Z,5.00
2023-01-13T03:26:47.381Z,6.50
2023-01-13T03:27:47.362Z,9.30
2023-01-13T03:28:47.348Z,6.70
2023-01-13T03:29:47.348Z,4.20
2023-01-13T03:30:47.374Z,6.00
2023-01-13T03:31:47.357Z,6.00
2023-01-13T03:32:47.320Z,8.00
2023-01-13T03:33:47.343Z,3.40
2023-01-13T03:34:47.318Z,2.90
2023-01-13T03:35:48.363Z,3.00
2023-01-13T03:36:47.319Z,2.80
2023-01-13T03:37:47.296Z,3.70
2023-01-13T03:38:47.307Z,4.50
2023-01-13T03:39:47.296Z,3.90
2023-01-13T03:40:47.274Z,3.20
2023-01-13T03:41:47.300Z,6.10
2023-01-13T03:42:47.248Z,8.50
2023-01-13T03:43:47.286Z,11.80
2023-01-13T03:44:47.252Z,13.80
2023-01-13T03:45:47.266Z,12.40
2023-01-13T03:46:47.287Z,16.00
2023-01-13T03:47:47.222Z,18.40
2023-01-13T03:48:47.244Z,20.40
2023-01-13T03:49:47.223Z,19.00
2023-01-13T03:50:47.212Z,19.60
2023-01-13T03:51:47.299Z,18.10
2023-01-13T03:52:47.197Z,16.00
2023-01-13T03:53:47.214Z,16.60
2023-01-13T03:54:47.217Z,16.90
2023-01-13T03:55:47.185Z,13.50
2023-01-13T03:56:47.193Z,17.30
2023-01-13T03:57:47.216Z,13.40
2023-01-13T03:58:47.155Z,13.00
2023-01-13T03:59:47.161Z,15.10
2023-01-13T04:00:47.152Z,12.30
2023-01-13T04:01:47.293Z,18.10
2023-01-13T04:02:47.165Z,15.10
2023-01-13T04:03:47.142Z,14.80
2023-01-13T04:04:47.115Z,16.50
2023-01-13T04:05:47.127Z,12.80
2023-01-13T04:06:47.101Z,14.50
2023-01-13T04:07:47.114Z,15.00
2023-01-13T04:08:47.130Z,11.90
2023-01-13T04:09:47.082Z,14.10
2023-01-13T04:10:47.097Z,13.10
2023-01-13T04:11:47.073Z,12.50
2023-01-13T04:12:47.093Z,13.00
2023-01-13T04:13:47.061Z,14.40
2023-01-13T04:14:47.054Z,15.20
2023-01-13T04:15:47.112Z,15.40
2023-01-13T04:16:47.040Z,14.30
2023-01-13T04:17:47.030Z,14.70
2023-01-13T04:18:47.047Z,16.10
2023-01-13T04:19:47.057Z,15.60
2023-01-13T04:20:47.010Z,17.90
2023-01-13T04:21:47.005Z,15.70
2023-01-13T04:22:47.032Z,12.60
2023-01-13T04:23:47.032Z,7.40
2023-01-13T04:24:47.030Z,13.70
2023-01-13T04:25:47.014Z,15.40
2023-01-13T04:26:46.981Z,11.30
2023-01-13T04:27:46.973Z,12.80
2023-01-13T04:28:47.010Z,10.30
2023-01-13T04:29:46.973Z,13.40
2023-01-13T04:30:47.008Z,6.20
2023-01-13T04:31:46.960Z,11.80
2023-01-13T04:32:46.950Z,7.50
2023-01-13T04:33:46.923Z,10.20
2023-01-13T04:34:46.930Z,8.10
2023-01-13T04:35:46.931Z,5.80
2023-01-13T04:36:46.950Z,10.20
2023-01-13T04:37:46.902Z,8.40
2023-01-13T04:38:46.913Z,10.80
2023-01-13T04:39:46.912Z,14.00
2023-01-13T04:40:46.896Z,10.80
2023-01-13T04:41:46.932Z,13.90
2023-01-13T04:42:46.865Z,16.70
2023-01-13T04:43:46.864Z,20.30
2023-01-13T04:44:46.909Z,20.80
2023-01-13T04:45:46.855Z,27.70
2023-01-13T04:46:46.862Z,25.10
2023-01-13T04:47:46.913Z,23.60
2023-01-13T04:48:46.832Z,24.20
2023-01-13T04:49:46.831Z,22.00
2023-01-13T04:50:46.813Z,22.20
2023-01-13T04:51:46.828Z,20.70
2023-01-13T04:52:46.828Z,21.70
2023-01-13T04:53:46.806Z,17.20
2023-01-13T04:54:46.811Z,19.50
2023-01-13T04:55:46.791Z,18.10
2023-01-13T04:56:46.789Z,22.50
2023-01-13T04:57:46.906Z,22.50
2023-01-13T04:58:46.772Z,22.90
2023-01-13T04:59:46.766Z,22.70
2023-01-13T05:00:46.803Z,19.70
2023-01-13T05:01:46.823Z,23.60
2023-01-13T05:02:46.740Z,22.30
2023-01-13T05:03:46.793Z,23.20
2023-01-13T05:04:46.735Z,25.80
2023-01-13T05:05:47.714Z,17.40
2023-01-13T05:06:47.506Z,26.50
2023-01-13T05:07:46.704Z,26.40
2023-01-13T05:08:46.709Z,26.70
2023-01-13T05:09:46.693Z,27.20
2023-01-13T05:10:47.560Z,25.50
2023-01-13T05:11:46.674Z,17.10
2023-01-13T05:12:46.669Z,16.10
2023-01-13T05:13:46.752Z,18.70
2023-01-13T05:14:46.659Z,13.40
2023-01-13T05:15:46.698Z,17.00
2023-01-13T05:16:46.649Z,14.50
2023-01-13T05:17:46.651Z,19.30
2023-01-13T05:18:46.629Z,20.10
2023-01-13T05:19:46.656Z,21.90
2023-01-13T05:20:46.622Z,17.00
2023-01-13T05:21:46.618Z,31.40
2023-01-13T05:22:46.696Z,20.80
2023-01-13T05:23:46.604Z,18.00
2023-01-13T05:24:46.596Z,20.90
2023-01-13T05:25:46.607Z,16.50
2023-01-13T05:26:46.593Z,15.30
2023-01-13T05:27:46.572Z,12.10
2023-01-13T05:28:46.594Z,13.50
2023-01-13T05:29:46.563Z,13.30
2023-01-13T05:30:46.650Z,25.70
2023-01-13T05:31:47.039Z,19.70
2023-01-13T05:32:46.604Z,29.30
2023-01-13T05:33:46.542Z,30.30
2023-01-13T05:34:46.526Z,20.40
2023-01-13T05:35:46.576Z,20.80
2023-01-13T05:36:46.522Z,19.50
2023-01-13T05:37:46.518Z,30.70
2023-01-13T05:38:46.546Z,22.10
2023-01-13T05:39:46.494Z,31.90
2023-01-13T05:40:46.481Z,22.10
2023-01-13T05:41:46.537Z,31.70
2023-01-13T05:42:46.471Z,31.80
2023-01-13T05:43:46.513Z,22.60
2023-01-13T05:44:46.458Z,32.60
2023-01-13T05:45:46.446Z,25.30
2023-01-13T05:46:46.562Z,24.30
2023-01-13T05:47:46.459Z,25.50
2023-01-13T05:48:46.423Z,19.80
2023-01-13T05:49:46.452Z,23.40
2023-01-13T05:50:46.442Z,13.30
2023-01-13T05:51:46.431Z,9.50
2023-01-13T05:52:46.442Z,15.10
2023-01-13T05:53:47.033Z,15.40
2023-01-13T05:54:46.395Z,17.00
2023-01-13T05:55:47.052Z,18.80
2023-01-13T05:56:46.380Z,14.00
2023-01-13T05:57:46.390Z,24.90
2023-01-13T05:58:46.382Z,13.10
2023-01-13T05:59:46.384Z,5.30
2023-01-13T06:00:46.381Z,12.10
2023-01-13T06:01:46.382Z,20.60
2023-01-13T06:02:46.386Z,24.40
2023-01-13T06:03:47.018Z,16.30
2023-01-13T06:04:46.449Z,16.80
2023-01-13T06:05:46.328Z,11.70
2023-01-13T06:06:47.305Z,15.50
2023-01-13T06:07:46.765Z,23.20
2023-01-13T06:08:47.034Z,24.90
2023-01-13T06:09:46.293Z,28.00
2023-01-13T06:10:46.301Z,29.10
2023-01-13T06:11:46.469Z,27.70
2023-01-13T06:12:46.324Z,22.10
2023-01-13T06:13:46.273Z,24.70
2023-01-13T06:14:46.329Z,33.90
2023-01-13T06:15:46.384Z,23.00
2023-01-13T06:16:46.340Z,20.20
2023-01-13T06:17:46.237Z,27.30
2023-01-13T06:18:46.259Z,36.80
2023-01-13T06:19:46.258Z,20.80
2023-01-13T06:20:46.214Z,22.80
2023-01-13T06:21:46.217Z,31.30
2023-01-13T06:22:46.273Z,30.40
2023-01-13T06:23:46.217Z,37.40
2023-01-13T06:24:46.189Z,39.90
2023-01-13T06:25:46.279Z,47.60
2023-01-13T06:26:46.176Z,38.10
2023-01-13T06:27:46.184Z,47.00
2023-01-13T06:28:46.328Z,42.40
2023-01-13T06:29:46.154Z,62.60
2023-01-13T06:30:46.189Z,48.30
2023-01-13T06:31:46.255Z,46.00
2023-01-13T06:32:46.145Z,42.40
2023-01-13T06:33:46.130Z,47.70
2023-01-13T06:34:46.185Z,56.10
2023-01-13T06:35:46.124Z,60.90
2023-01-13T06:36:46.130Z,52.40
2023-01-13T06:37:46.221Z,51.10
2023-01-13T06:38:47.111Z,48.80
2023-01-13T06:39:46.105Z,52.20
2023-01-13T06:40:46.170Z,55.20
2023-01-13T06:41:46.110Z,54.00
2023-01-13T06:42:46.085Z,52.00
2023-01-13T06:43:46.168Z,49.40
2023-01-13T06:44:46.068Z,52.30
2023-01-13T06:45:46.074Z,51.00
2023-01-13T06:46:46.936Z,56.40
2023-01-13T06:47:46.081Z,55.80
2023-01-13T06:48:46.039Z,72.90
2023-01-13T06:49:46.085Z,63.70
2023-01-13T06:50:46.033Z,64.80
2023-01-13T06:51:46.051Z,73.60
2023-01-13T06:52:46.064Z,78.60
2023-01-13T06:53:46.014Z,60.60
2023-01-13T06:54:46.014Z,82.80
2023-01-13T06:55:47.061Z,81.90
2023-01-13T06:56:45.997Z,65.90
2023-01-13T06:57:46.012Z,73.80
2023-01-13T06:58:46.026Z,80.30
2023-01-13T06:59:45.980Z,70.70
2023-01-13T07:00:46.003Z,81.20
2023-01-13T07:01:46.192Z,70.10
2023-01-13T07:02:45.985Z,77.50
2023-01-13T07:03:45.955Z,75.20
2023-01-13T07:04:45.980Z,78.40
2023-01-13T07:05:45.934Z,59.30
2023-01-13T07:06:45.938Z,74.30
2023-01-13T07:07:46.010Z,67.00
2023-01-13T07:08:45.920Z,70.90
2023-01-13T07:09:45.908Z,75.50
2023-01-13T07:10:45.951Z,68.80
2023-01-13T07:11:45.912Z,72.20
2023-01-13T07:12:45.901Z,70.50
2023-01-13T07:13:45.942Z,83.80
2023-01-13T07:14:45.885Z,83.50
2023-01-13T07:15:45.891Z,79.80
2023-01-13T07:16:45.988Z,79.90
2023-01-13T07:17:45.861Z,83.30
2023-01-13T07:18:45.867Z,87.10
2023-01-13T07:19:45.860Z,92.00
2023-01-13T07:20:45.855Z,88.80
2023-01-13T07:21:45.838Z,81.20
2023-01-13T07:22:45.851Z,80.50
2023-01-13T07:23:45.843Z,55.60
2023-01-13T07:24:45.819Z,76.00
2023-01-13T07:25:45.832Z,72.50
2023-01-13T07:26:45.866Z,71.00
2023-01-13T07:27:45.822Z,73.20
2023-01-13T07:28:45.823Z,81.00
2023-01-13T07:29:45.792Z,70.40
2023-01-13T07:30:45.784Z,68.60
2023-01-13T07:31:47.603Z,75.50
2023-01-13T07:32:45.771Z,49.10
2023-01-13T07:33:45.800Z,42.90
2023-01-13T07:34:45.775Z,62.70
2023-01-13T07:35:45.749Z,65.00
2023-01-13T07:36:45.743Z,69.50
2023-01-13T07:37:45.759Z,42.90
2023-01-13T07:38:45.755Z,77.30
2023-01-13T07:39:45.743Z,67.40
2023-01-13T07:40:45.726Z,67.00
2023-01-13T07:41:45.719Z,69.10
2023-01-13T07:42:45.715Z,70.60
2023-01-13T07:43:45.719Z,56.00
2023-01-13T07:44:45.736Z,58.90
2023-01-13T07:45:45.761Z,55.70
2023-01-13T07:46:45.691Z,58.30
2023-01-13T07:47:45.709Z,60.80
2023-01-13T07:48:45.681Z,51.30
2023-01-13T07:49:45.689Z,56.10
2023-01-13T07:50:45.666Z,50.30
2023-01-13T07:51:45.678Z,43.20
2023-01-13T07:52:45.690Z,46.70
2023-01-13T07:53:45.677Z,41.40
2023-01-13T07:54:45.667Z,59.40
2023-01-13T07:55:45.698Z,40.30
2023-01-13T07:56:45.775Z,65.00
2023-01-13T07:57:45.685Z,54.80
2023-01-13T07:58:45.682Z,43.50
2023-01-13T07:59:45.665Z,47.30
2023-01-13T08:00:45.671Z,48.50
2023-01-13T08:01:45.779Z,50.60
2023-01-13T08:02:45.654Z,29.60
2023-01-13T08:03:45.681Z,44.00
2023-01-13T08:04:45.602Z,47.10
2023-01-13T08:05:45.594Z,37.70
2023-01-13T08:06:45.619Z,62.70
2023-01-13T08:07:45.567Z,43.40
2023-01-13T08:08:45.558Z,47.70
2023-01-13T08:09:45.589Z,47.50
2023-01-13T08:10:45.579Z,70.50
2023-01-13T08:11:45.558Z,42.00
2023-01-13T08:12:52.167Z,44.10
2023-01-13T08:13:46.532Z,28.60
2023-01-13T08:14:45.527Z,20.70
2023-01-13T08:15:45.559Z,39.20
2023-01-13T08:16:45.654Z,29.10
2023-01-13T08:17:45.507Z,23.10
2023-01-13T08:18:45.507Z,28.00
2023-01-13T08:19:45.507Z,23.60
2023-01-13T08:20:45.522Z,18.50
2023-01-13T08:21:45.553Z,15.20
2023-01-13T08:22:45.512Z,15.50
2023-01-13T08:23:45.493Z,10.70
2023-01-13T08:24:45.482Z,21.10
2023-01-13T08:25:45.475Z,12.90
2023-01-13T08:26:45.601Z,11.80
2023-01-13T08:27:45.483Z,5.20
2023-01-13T08:28:45.444Z,6.20
2023-01-13T08:29:45.501Z,4.30
2023-01-13T08:30:45.491Z,5.50
2023-01-13T08:31:45.423Z,6.30
2023-01-13T08:32:45.446Z,5.70
2023-01-13T08:33:45.451Z,4.80
2023-01-13T08:34:45.415Z,5.60
2023-01-13T08:35:45.411Z,5.40
2023-01-13T08:36:45.417Z,4.90
2023-01-13T08:37:45.422Z,4.60
2023-01-13T08:38:45.411Z,5.00
2023-01-13T08:39:45.437Z,5.10
2023-01-13T08:40:45.387Z,4.90
2023-01-13T08:41:45.383Z,4.70
2023-01-13T08:42:48.378Z,4.20
2023-01-13T08:43:45.494Z,4.40
2023-01-13T08:44:45.359Z,5.20
2023-01-13T08:45:45.424Z,4.80
2023-01-13T08:46:45.345Z,5.80
2023-01-13T08:47:45.335Z,3.30
2023-01-13T08:48:45.375Z,5.10
2023-01-13T08:49:45.346Z,4.40
2023-01-13T08:50:45.366Z,5.60
2023-01-13T08:51:45.351Z,5.70
2023-01-13T08:52:45.306Z,3.10
2023-01-13T08:53:45.320Z,6.30
2023-01-13T08:54:45.303Z,4.60
2023-01-13T08:55:45.281Z,4.60
2023-01-13T08:56:45.325Z,5.90
2023-01-13T08:57:46.291Z,4.70
2023-01-13T08:58:45.272Z,6.10
2023-01-13T08:59:45.305Z,7.00
2023-01-13T09:00:45.267Z,6.30
2023-01-13T09:01:45.423Z,4.40
2023-01-13T09:02:45.249Z,6.20
2023-01-13T09:03:45.334Z,6.50
2023-01-13T09:04:45.299Z,7.80
2023-01-13T09:05:45.223Z,5.20
2023-01-13T09:06:45.221Z,6.00
2023-01-13T09:07:45.210Z,6.30
2023-01-13T09:08:45.224Z,6.00
2023-01-13T09:09:45.238Z,11.80
2023-01-13T09:10:45.193Z,4.80
2023-01-13T09:11:45.197Z,6.70
2023-01-13T09:12:45.185Z,5.20
2023-01-13T09:13:45.181Z,6.60
2023-01-13T09:14:45.180Z,5.90
2023-01-13T09:15:45.209Z,5.50
2023-01-13T09:16:45.185Z,4.70
2023-01-13T09:17:45.150Z,5.80
2023-01-13T09:18:45.136Z,6.40
2023-01-13T09:19:45.186Z,6.10
2023-01-13T09:20:45.124Z,4.40
2023-01-13T09:21:45.131Z,5.20
2023-01-13T09:22:45.126Z,11.20
2023-01-13T09:23:45.120Z,5.20
2023-01-13T09:24:45.112Z,5.60
2023-01-13T09:25:45.159Z,5.00
2023-01-13T09:26:45.087Z,4.60
2023-01-13T09:27:45.090Z,6.00
2023-01-13T09:28:45.225Z,4.60
2023-01-13T09:29:45.066Z,2.90
2023-01-13T09:30:45.076Z,7.00
2023-01-13T09:31:45.158Z,4.40
2023-01-13T09:32:45.047Z,6.60
2023-01-13T09:33:45.049Z,4.90
2023-01-13T09:34:45.081Z,4.80
2023-01-13T09:35:45.050Z,4.30
2023-01-13T09:36:45.016Z,5.10
2023-01-13T09:37:45.049Z,4.60
2023-01-13T09:38:45.010Z,5.80
2023-01-13T09:39:45.035Z,6.40
2023-01-13T09:40:45.086Z,4.60
2023-01-13T09:41:45.022Z,5.60
2023-01-13T09:42:44.983Z,6.10
2023-01-13T09:43:45.058Z,6.90
2023-01-13T09:44:44.982Z,6.90
2023-01-13T09:45:45.003Z,5.10
2023-01-13T09:46:45.282Z,5.20
2023-01-13T09:47:45.002Z,6.40
2023-01-13T09:48:44.997Z,5.60
2023-01-13T09:49:44.937Z,6.30
2023-01-13T09:50:44.934Z,5.40
2023-01-13T09:51:44.972Z,6.50
2023-01-13T09:52:44.943Z,5.30
2023-01-13T09:53:45.034Z,5.00
2023-01-13T09:54:45.111Z,5.90
2023-01-13T09:55:44.901Z,4.40
2023-01-13T09:56:44.932Z,5.90
2023-01-13T09:57:44.925Z,6.10
2023-01-13T09:58:44.881Z,4.60
2023-01-13T09:59:44.910Z,3.60
2023-01-13T10:00:44.972Z,4.20
2023-01-13T10:01:44.869Z,4.60
2023-01-13T10:02:44.869Z,9.60
2023-01-13T10:03:44.961Z,4.50
2023-01-13T10:04:44.915Z,5.30
2023-01-13T10:05:44.841Z,6.10
2023-01-13T10:06:44.889Z,4.50
2023-01-13T10:07:44.864Z,4.40
2023-01-13T10:08:44.829Z,4.20
2023-01-13T10:09:44.821Z,4.10
2023-01-13T10:10:45.810Z,4.50
2023-01-13T10:11:44.823Z,7.70
2023-01-13T10:12:44.820Z,6.00
2023-01-13T10:13:44.796Z,4.70
2023-01-13T10:14:44.781Z,4.70
2023-01-13T10:15:44.819Z,6.20
2023-01-13T10:16:44.807Z,6.60
2023-01-13T10:17:44.778Z,4.10
2023-01-13T10:18:44.947Z,6.30
2023-01-13T10:19:44.770Z,5.30
2023-01-13T10:20:44.817Z,5.30
2023-01-13T10:21:44.762Z,5.70
2023-01-13T10:22:44.761Z,5.10
2023-01-13T10:23:44.740Z,5.10
2023-01-13T10:24:44.761Z,5.20
2023-01-13T10:25:44.742Z,4.20
2023-01-13T10:26:44.715Z,6.80
2023-01-13T10:27:44.697Z,6.80
2023-01-13T10:28:44.720Z,6.90
2023-01-13T10:29:44.706Z,5.40
2023-01-13T10:30:44.680Z,7.60
2023-01-13T10:31:44.873Z,5.60
2023-01-13T10:32:44.677Z,5.50
2023-01-13T10:33:44.691Z,4.60
2023-01-13T10:34:44.734Z,4.10
2023-01-13T10:35:44.647Z,5.90
2023-01-13T10:36:44.661Z,6.40
2023-01-13T10:37:44.657Z,4.20
2023-01-13T10:38:44.630Z,7.40
2023-01-13T10:39:44.673Z,6.00
2023-01-13T10:40:45.030Z,5.10
2023-01-13T10:41:44.644Z,5.60
2023-01-13T10:42:44.608Z,8.10
2023-01-13T10:43:44.610Z,4.20
2023-01-13T10:44:44.606Z,4.70
2023-01-13T10:45:44.605Z,6.90
2023-01-13T10:46:45.650Z,5.60
2023-01-13T10:47:44.600Z,4.40
2023-01-13T10:48:44.577Z,6.00
2023-01-13T10:49:44.564Z,8.80
2023-01-13T10:50:44.622Z,5.60
2023-01-13T10:51:44.573Z,6.70
2023-01-13T10:52:44.732Z,6.70
2023-01-13T10:53:44.649Z,6.60
2023-01-13T10:54:44.546Z,4.90
2023-01-13T10:55:44.552Z,6.30
2023-01-13T10:56:44.537Z,6.20
2023-01-13T10:57:44.524Z,6.60
2023-01-13T10:58:44.569Z,7.90
2023-01-13T10:59:44.575Z,6.60
2023-01-13T11:00:44.504Z,7.60
2023-01-13T11:01:44.583Z,7.30
2023-01-13T11:02:44.567Z,7.90
2023-01-13T11:03:44.540Z,8.40
2023-01-13T11:04:44.561Z,7.40
2023-01-13T11:05:44.476Z,5.40
2023-01-13T11:06:44.480Z,5.90
2023-01-13T11:07:44.466Z,8.60
2023-01-13T11:08:44.472Z,7.70
2023-01-13T11:09:44.498Z,8.00
2023-01-13T11:10:44.530Z,6.10
2023-01-13T11:11:44.460Z,8.10
2023-01-13T11:12:44.431Z,7.70
2023-01-13T11:13:44.504Z,5.50
2023-01-13T11:14:44.435Z,6.70
2023-01-13T11:15:44.464Z,9.60
2023-01-13T11:16:53.018Z,6.00
2023-01-13T11:17:46.419Z,22.90
2023-01-13T11:18:44.443Z,12.00
2023-01-13T11:19:44.468Z,16.50
2023-01-13T11:20:44.523Z,7.70
2023-01-13T11:21:44.380Z,9.00
2023-01-13T11:22:44.373Z,12.10
2023-01-13T11:23:44.398Z,17.00
2023-01-13T11:24:44.362Z,21.10
2023-01-13T11:25:44.378Z,18.10
2023-01-13T11:26:44.398Z,7.90
2023-01-13T11:27:44.333Z,8.70
2023-01-13T11:28:44.353Z,12.00
2023-01-13T11:29:44.331Z,10.00
2023-01-13T11:30:44.377Z,11.70
2023-01-13T11:31:44.363Z,10.30
2023-01-13T11:32:44.322Z,9.90
2023-01-13T11:33:44.359Z,10.10
2023-01-13T11:34:44.295Z,6.40
2023-01-13T11:35:44.294Z,5.80
2023-01-13T11:36:44.366Z,6.50
2023-01-13T11:37:44.281Z,8.80
2023-01-13T11:38:44.299Z,10.80
2023-01-13T11:39:44.335Z,9.40
2023-01-13T11:40:44.293Z,5.60
2023-01-13T11:41:44.297Z,16.90
2023-01-13T11:42:44.242Z,16.90
2023-01-13T11:43:44.241Z,6.60
2023-01-13T11:44:44.239Z,9.40
2023-01-13T11:45:44.229Z,26.60
2023-01-13T11:46:44.965Z,14.70
2023-01-13T11:47:44.220Z,14.30
2023-01-13T11:48:44.206Z,9.30
2023-01-13T11:49:44.198Z,32.80
2023-01-13T11:50:44.194Z,6.70
2023-01-13T11:51:44.204Z,34.70
2023-01-13T11:52:44.174Z,23.10
2023-01-13T11:53:44.163Z,23.30
2023-01-13T11:54:44.145Z,30.70
2023-01-13T11:55:45.168Z,11.00
2023-01-13T11:56:44.200Z,26.00
2023-01-13T11:57:44.165Z,14.70
2023-01-13T11:58:50.805Z,9.90
2023-01-13T11:59:46.146Z,17.00
2023-01-13T12:00:44.137Z,11.80
2023-01-13T12:01:44.169Z,19.20
2023-01-13T12:02:44.170Z,13.50
2023-01-13T12:03:44.100Z,20.90
2023-01-13T12:04:44.117Z,16.80
2023-01-13T12:05:44.089Z,11.80
2023-01-13T12:06:44.097Z,8.90
2023-01-13T12:07:44.122Z,20.50
2023-01-13T12:08:44.107Z,11.40
2023-01-13T12:09:44.071Z,37.60
2023-01-13T12:10:44.080Z,16.40
2023-01-13T12:11:44.069Z,15.50
2023-01-13T12:12:44.068Z,14.40
2023-01-13T12:13:44.096Z,12.40
2023-01-13T12:14:44.053Z,15.50
2023-01-13T12:15:44.037Z,9.50
2023-01-13T12:16:44.055Z,14.10
2023-01-13T12:17:44.011Z,11.20
2023-01-13T12:18:44.028Z,23.20
2023-01-13T12:19:44.023Z,13.00
2023-01-13T12:20:44.033Z,9.40
2023-01-13T12:21:43.993Z,10.60
2023-01-13T12:22:43.988Z,9.50
2023-01-13T12:23:43.993Z,9.80
2023-01-13T12:24:44.013Z,11.40
2023-01-13T12:25:43.984Z,11.50
2023-01-13T12:26:43.989Z,7.10
2023-01-13T12:27:45.326Z,7.80
2023-01-13T12:28:44.002Z,12.00
2023-01-13T12:29:43.964Z,9.60
2023-01-13T12:30:43.943Z,9.10
2023-01-13T12:31:43.961Z,14.30
2023-01-13T12:32:43.935Z,11.20
2023-01-13T12:33:43.920Z,14.90
2023-01-13T12:34:43.928Z,18.50
2023-01-13T12:35:43.993Z,23.90
2023-01-13T12:36:43.911Z,12.50
2023-01-13T12:37:43.931Z,18.90
2023-01-13T12:38:43.890Z,11.10
2023-01-13T12:39:43.935Z,10.70
2023-01-13T12:40:43.898Z,10.70
2023-01-13T12:41:43.923Z,12.80
2023-01-13T12:42:43.867Z,9.80
2023-01-13T12:43:43.870Z,11.40
2023-01-13T12:44:43.847Z,12.90
2023-01-13T12:45:43.911Z,9.70
2023-01-13T12:46:43.856Z,15.50
2023-01-13T12:47:43.836Z,16.40
2023-01-13T12:48:43.825Z,15.10
2023-01-13T12:49:43.829Z,10.50
2023-01-13T12:50:43.817Z,11.70
2023-01-13T12:51:43.831Z,11.80
2023-01-13T12:52:43.858Z,12.50
2023-01-13T12:53:43.797Z,13.70
2023-01-13T12:54:43.796Z,10.10
2023-01-13T12:55:43.780Z,17.50
2023-01-13T12:56:43.800Z,12.60
2023-01-13T12:57:43.788Z,11.70
2023-01-13T12:58:44.798Z,11.20
2023-01-13T12:59:43.756Z,10.70
2023-01-13T13:00:43.869Z,8.90
2023-01-13T13:01:44.666Z,10.50
2023-01-13T13:02:43.803Z,8.40
2023-01-13T13:03:43.743Z,10.00
2023-01-13T13:04:43.735Z,7.70